sensor_id;sensor_type;location;lat;lon;timestamp;pressure;altitude;pressure_sealevel;temperature;humidity
55540;BME280;41384;51.418;7.286;2023-01-24T00:01:22;101868.75;;;2.79;100.00
55540;BME280;41384;51.418;7.286;2023-01-24T00:03:48;101870.00;;;2.73;100.00
55540;BME280;41384;51.418;7.286;2023-01-24T00:06:14;101876.38;;;2.95;100.00
55540;BME280;41384;51.418;7.286;2023-01-24T00:08:39;101875.75;;;2.79;99.40
55540;BME280;41384;51.418;7.286;2023-01-24T00:11:07;101874.38;;;2.99;100.00
55540;BME280;41384;51.418;7.286;2023-01-24T00:13:34;101863.00;;;3.00;98.46
55540;BME280;41384;51.418;7.286;2023-01-24T00:16:07;101863.63;;;2.90;99.99
55540;BME280;41384;51.418;7.286;2023-01-24T00:18:33;101868.03;;;2.90;98.35
55540;BME280;41384;51.418;7.286;2023-01-24T00:21:11;101870.63;;;2.90;98.44
55540;BME280;41384;51.418;7.286;2023-01-24T00:23:38;101872.06;;;3.07;98.82
55540;BME280;41384;51.418;7.286;2023-01-24T00:26:05;101875.72;;;3.17;98.58
55540;BME280;41384;51.418;7.286;2023-01-24T00:28:31;101872.59;;;2.86;97.93
55540;BME280;41384;51.418;7.286;2023-01-24T00:30:56;101876.56;;;2.79;99.85
55540;BME280;41384;51.418;7.286;2023-01-24T00:33:21;101875.72;;;2.91;98.33
55540;BME280;41384;51.418;7.286;2023-01-24T00:35:49;101870.94;;;2.98;98.58
55540;BME280;41384;51.418;7.286;2023-01-24T00:38:14;101865.50;;;3.01;98.81
55540;BME280;41384;51.418;7.286;2023-01-24T00:40:39;101863.84;;;2.87;97.13
55540;BME280;41384;51.418;7.286;2023-01-24T00:43:05;101865.06;;;2.56;98.92
55540;BME280;41384;51.418;7.286;2023-01-24T00:45:30;101855.41;;;2.84;98.71
55540;BME280;41384;51.418;7.286;2023-01-24T00:47:55;101859.97;;;2.54;98.32
55540;BME280;41384;51.418;7.286;2023-01-24T00:50:20;101862.41;;;2.70;98.28
55540;BME280;41384;51.418;7.286;2023-01-24T00:52:46;101867.81;;;2.54;97.55
55540;BME280;41384;51.418;7.286;2023-01-24T00:55:11;101867.81;;;2.67;98.36
55540;BME280;41384;51.418;7.286;2023-01-24T00:57:36;101860.19;;;2.77;97.78
55540;BME280;41384;51.418;7.286;2023-01-24T01:00:02;101864.88;;;2.72;97.32
55540;BME280;41384;51.418;7.286;2023-01-24T01:02:28;101866.53;;;2.60;98.25
55540;BME280;41384;51.418;7.286;2023-01-24T01:04:53;101861.47;;;2.71;97.57
55540;BME280;41384;51.418;7.286;2023-01-24T01:07:18;101858.41;;;2.65;98.67
55540;BME280;41384;51.418;7.286;2023-01-24T01:09:46;101856.75;;;2.89;97.40
55540;BME280;41384;51.418;7.286;2023-01-24T01:12:11;101851.75;;;2.99;96.57
55540;BME280;41384;51.418;7.286;2023-01-24T01:14:36;101856.13;;;2.73;95.72
55540;BME280;41384;51.418;7.286;2023-01-24T01:17:01;101856.53;;;2.54;96.16
55540;BME280;41384;51.418;7.286;2023-01-24T01:19:27;101862.09;;;2.88;95.66
55540;BME280;41384;51.418;7.286;2023-01-24T01:21:52;101862.28;;;2.85;95.51
55540;BME280;41384;51.418;7.286;2023-01-24T01:24:17;101857.47;;;2.91;94.75
55540;BME280;41384;51.418;7.286;2023-01-24T01:26:43;101869.91;;;2.75;95.34
55540;BME280;41384;51.418;7.286;2023-01-24T01:29:08;101870.41;;;2.80;95.20
55540;BME280;41384;51.418;7.286;2023-01-24T01:31:35;101877.22;;;2.83;95.03
55540;BME280;41384;51.418;7.286;2023-01-24T01:34:00;101868.53;;;2.82;93.95
55540;BME280;41384;51.418;7.286;2023-01-24T01:36:25;101876.88;;;2.61;94.89
55540;BME280;41384;51.418;7.286;2023-01-24T01:38:51;101867.94;;;2.79;96.41
55540;BME280;41384;51.418;7.286;2023-01-24T01:41:16;101883.03;;;2.86;93.55
55540;BME280;41384;51.418;7.286;2023-01-24T01:43:41;101885.44;;;2.76;93.90
55540;BME280;41384;51.418;7.286;2023-01-24T01:46:29;101888.69;;;2.67;94.28
55540;BME280;41384;51.418;7.286;2023-01-24T01:48:59;101886.34;;;2.50;93.76
55540;BME280;41384;51.418;7.286;2023-01-24T01:51:47;101889.06;;;2.61;92.90
55540;BME280;41384;51.418;7.286;2023-01-24T01:54:20;101892.31;;;2.65;93.86
55540;BME280;41384;51.418;7.286;2023-01-24T01:56:50;101878.94;;;2.43;92.23
55540;BME280;41384;51.418;7.286;2023-01-24T01:59:21;101879.69;;;2.58;93.48
55540;BME280;41384;51.418;7.286;2023-01-24T02:01:50;101879.81;;;2.70;93.06
55540;BME280;41384;51.418;7.286;2023-01-24T02:04:24;101881.47;;;2.71;92.33
55540;BME280;41384;51.418;7.286;2023-01-24T02:07:14;101872.19;;;2.67;92.93
55540;BME280;41384;51.418;7.286;2023-01-24T02:09:43;101875.41;;;2.57;92.63
55540;BME280;41384;51.418;7.286;2023-01-24T02:12:24;101876.34;;;2.56;92.78
55540;BME280;41384;51.418;7.286;2023-01-24T02:14:53;101875.03;;;2.76;92.87
55540;BME280;41384;51.418;7.286;2023-01-24T02:17:39;101865.41;;;2.77;92.18
55540;BME280;41384;51.418;7.286;2023-01-24T02:25:36;101866.13;;;2.53;91.86
55540;BME280;41384;51.418;7.286;2023-01-24T02:28:03;101863.94;;;2.60;91.55
55540;BME280;41384;51.418;7.286;2023-01-24T02:30:30;101869.06;;;2.61;93.14
55540;BME280;41384;51.418;7.286;2023-01-24T02:32:56;101864.34;;;2.54;91.65
55540;BME280;41384;51.418;7.286;2023-01-24T02:35:29;101859.06;;;2.68;91.11
55540;BME280;41384;51.418;7.286;2023-01-24T02:37:58;101853.72;;;2.70;91.35
55540;BME280;41384;51.418;7.286;2023-01-24T02:40:27;101857.19;;;2.70;91.74
55540;BME280;41384;51.418;7.286;2023-01-24T02:42:54;101850.38;;;2.68;91.05
55540;BME280;41384;51.418;7.286;2023-01-24T02:45:25;101850.19;;;2.71;91.67
55540;BME280;41384;51.418;7.286;2023-01-24T02:47:53;101861.13;;;2.63;91.17
55540;BME280;41384;51.418;7.286;2023-01-24T02:50:22;101846.03;;;2.68;90.93
55540;BME280;41384;51.418;7.286;2023-01-24T02:52:47;101852.69;;;2.59;92.24
55540;BME280;41384;51.418;7.286;2023-01-24T02:55:32;101855.38;;;2.58;91.96
55540;BME280;41384;51.418;7.286;2023-01-24T02:57:58;101843.94;;;2.60;93.03
55540;BME280;41384;51.418;7.286;2023-01-24T03:00:40;101841.84;;;2.66;90.74
55540;BME280;41384;51.418;7.286;2023-01-24T03:03:07;101844.97;;;2.45;91.01
55540;BME280;41384;51.418;7.286;2023-01-24T03:05:33;101848.19;;;2.61;91.96
55540;BME280;41384;51.418;7.286;2023-01-24T03:08:07;101849.44;;;2.69;91.46
55540;BME280;41384;51.418;7.286;2023-01-24T03:10:33;101850.50;;;2.79;90.42
55540;BME280;41384;51.418;7.286;2023-01-24T03:12:59;101844.53;;;2.64;92.17
55540;BME280;41384;51.418;7.286;2023-01-24T03:15:43;101838.72;;;2.60;91.80
55540;BME280;41384;51.418;7.286;2023-01-24T03:18:27;101838.50;;;2.63;91.71
55540;BME280;41384;51.418;7.286;2023-01-24T03:21:11;101836.94;;;2.48;91.77
55540;BME280;41384;51.418;7.286;2023-01-24T03:23:55;101834.88;;;2.66;91.91
55540;BME280;41384;51.418;7.286;2023-01-24T03:26:39;101839.13;;;2.67;91.72
55540;BME280;41384;51.418;7.286;2023-01-24T03:29:23;101836.94;;;2.74;91.28
55540;BME280;41384;51.418;7.286;2023-01-24T03:32:07;101836.22;;;2.72;91.57
55540;BME280;41384;51.418;7.286;2023-01-24T03:34:51;101832.25;;;2.53;91.98
55540;BME280;41384;51.418;7.286;2023-01-24T03:37:23;101835.91;;;2.63;91.71
55540;BME280;41384;51.418;7.286;2023-01-24T03:40:11;101839.31;;;2.64;92.24
55540;BME280;41384;51.418;7.286;2023-01-24T03:42:37;101842.16;;;2.74;90.92
55540;BME280;41384;51.418;7.286;2023-01-24T03:45:13;101841.13;;;2.76;90.82
55540;BME280;41384;51.418;7.286;2023-01-24T03:47:47;101840.28;;;2.89;91.03
55540;BME280;41384;51.418;7.286;2023-01-24T03:50:37;101857.16;;;2.83;90.25
55540;BME280;41384;51.418;7.286;2023-01-24T03:53:23;101846.84;;;2.82;90.33
55540;BME280;41384;51.418;7.286;2023-01-24T03:55:54;101848.31;;;2.86;90.82
55540;BME280;41384;51.418;7.286;2023-01-24T03:58:21;101844.66;;;2.62;90.96
55540;BME280;41384;51.418;7.286;2023-01-24T04:00:47;101843.81;;;2.75;91.13
55540;BME280;41384;51.418;7.286;2023-01-24T04:03:12;101837.25;;;2.69;91.27
55540;BME280;41384;51.418;7.286;2023-01-24T04:05:38;101835.03;;;2.37;91.74
55540;BME280;41384;51.418;7.286;2023-01-24T04:08:03;101837.97;;;2.58;91.84
55540;BME280;41384;51.418;7.286;2023-01-24T04:10:29;101841.72;;;2.41;92.10
55540;BME280;41384;51.418;7.286;2023-01-24T04:12:55;101836.53;;;2.54;92.07
55540;BME280;41384;51.418;7.286;2023-01-24T04:15:24;101834.44;;;2.59;91.50
55540;BME280;41384;51.418;7.286;2023-01-24T04:17:50;101839.44;;;2.62;91.13
55540;BME280;41384;51.418;7.286;2023-01-24T04:20:15;101831.91;;;2.58;92.09
55540;BME280;41384;51.418;7.286;2023-01-24T04:22:41;101833.59;;;2.72;91.09
55540;BME280;41384;51.418;7.286;2023-01-24T04:25:07;101832.34;;;2.65;91.68
55540;BME280;41384;51.418;7.286;2023-01-24T04:27:33;101837.97;;;2.58;91.97
55540;BME280;41384;51.418;7.286;2023-01-24T04:29:58;101833.72;;;2.70;92.13
55540;BME280;41384;51.418;7.286;2023-01-24T04:32:24;101836.09;;;2.60;91.46
55540;BME280;41384;51.418;7.286;2023-01-24T04:34:49;101836.53;;;2.67;90.70
55540;BME280;41384;51.418;7.286;2023-01-24T04:37:14;101828.91;;;2.77;91.46
55540;BME280;41384;51.418;7.286;2023-01-24T04:39:39;101826.91;;;2.68;91.10
55540;BME280;41384;51.418;7.286;2023-01-24T04:42:05;101840.81;;;2.68;92.15
55540;BME280;41384;51.418;7.286;2023-01-24T04:44:31;101838.19;;;2.68;91.32
55540;BME280;41384;51.418;7.286;2023-01-24T04:46:57;101836.84;;;2.62;90.34
55540;BME280;41384;51.418;7.286;2023-01-24T04:49:22;101840.06;;;2.66;91.20
55540;BME280;41384;51.418;7.286;2023-01-24T04:51:49;101837.88;;;2.73;91.35
55540;BME280;41384;51.418;7.286;2023-01-24T04:54:15;101834.88;;;2.66;91.91
55540;BME280;41384;51.418;7.286;2023-01-24T04:56:40;101847.69;;;2.69;91.61
55540;BME280;41384;51.418;7.286;2023-01-24T04:59:05;101846.53;;;2.86;91.37
55540;BME280;41384;51.418;7.286;2023-01-24T05:01:31;101842.47;;;2.82;92.09
55540;BME280;41384;51.418;7.286;2023-01-24T05:03:56;101835.38;;;2.71;91.09
55540;BME280;41384;51.418;7.286;2023-01-24T05:06:25;101840.38;;;2.74;91.67
55540;BME280;41384;51.418;7.286;2023-01-24T05:08:52;101843.41;;;2.81;90.96
55540;BME280;41384;51.418;7.286;2023-01-24T05:11:17;101845.81;;;2.71;91.58
55540;BME280;41384;51.418;7.286;2023-01-24T05:13:42;101844.66;;;2.88;91.18
55540;BME280;41384;51.418;7.286;2023-01-24T05:16:07;101850.38;;;2.55;91.38
55540;BME280;41384;51.418;7.286;2023-01-24T05:18:33;101851.19;;;2.42;92.08
55540;BME280;41384;51.418;7.286;2023-01-24T05:21:11;101853.41;;;2.36;91.81
55540;BME280;41384;51.418;7.286;2023-01-24T05:23:36;101856.53;;;2.54;91.55
55540;BME280;41384;51.418;7.286;2023-01-24T05:26:02;101863.31;;;2.56;92.25
55540;BME280;41384;51.418;7.286;2023-01-24T05:28:28;101858.00;;;2.45;93.16
55540;BME280;41384;51.418;7.286;2023-01-24T05:30:58;101859.25;;;2.52;92.34
55540;BME280;41384;51.418;7.286;2023-01-24T05:33:24;101856.09;;;2.60;91.60
55540;BME280;41384;51.418;7.286;2023-01-24T05:35:59;101855.09;;;2.75;91.53
55540;BME280;41384;51.418;7.286;2023-01-24T05:38:25;101857.47;;;2.66;91.17
55540;BME280;41384;51.418;7.286;2023-01-24T05:40:50;101864.06;;;2.58;90.57
55540;BME280;41384;51.418;7.286;2023-01-24T05:43:16;101864.16;;;2.70;91.17
55540;BME280;41384;51.418;7.286;2023-01-24T05:45:41;101864.06;;;2.58;91.82
55540;BME280;41384;51.418;7.286;2023-01-24T05:48:06;101872.25;;;2.39;92.43
55540;BME280;41384;51.418;7.286;2023-01-24T05:50:31;101859.34;;;2.38;91.74
55540;BME280;41384;51.418;7.286;2023-01-24T05:52:57;101862.03;;;2.36;92.42
55540;BME280;41384;51.418;7.286;2023-01-24T05:55:22;101865.41;;;2.51;90.71
55540;BME280;41384;51.418;7.286;2023-01-24T05:57:47;101867.38;;;2.47;91.56
55540;BME280;41384;51.418;7.286;2023-01-24T06:00:13;101868.75;;;2.66;92.39
55540;BME280;41384;51.418;7.286;2023-01-24T06:02:38;101873.84;;;2.68;91.51
55540;BME280;41384;51.418;7.286;2023-01-24T06:05:04;101879.28;;;2.65;91.82
55540;BME280;41384;51.418;7.286;2023-01-24T06:07:29;101871.53;;;2.63;91.43
55540;BME280;41384;51.418;7.286;2023-01-24T06:09:54;101885.34;;;2.78;90.59
55540;BME280;41384;51.418;7.286;2023-01-24T06:12:19;101886.16;;;2.66;91.39
55540;BME280;41384;51.418;7.286;2023-01-24T06:14:45;101896.41;;;2.82;90.57
55540;BME280;41384;51.418;7.286;2023-01-24T06:17:10;101893.84;;;2.41;90.49
55540;BME280;41384;51.418;7.286;2023-01-24T06:19:35;101894.69;;;2.42;91.56
55540;BME280;41384;51.418;7.286;2023-01-24T06:22:03;101896.28;;;2.57;91.98
55540;BME280;41384;51.418;7.286;2023-01-24T06:24:34;101904.00;;;2.72;89.66
55540;BME280;41384;51.418;7.286;2023-01-24T06:27:00;101896.09;;;2.73;90.33
55540;BME280;41384;51.418;7.286;2023-01-24T06:29:25;101905.25;;;2.79;89.39
55540;BME280;41384;51.418;7.286;2023-01-24T06:34:52;101911.09;;;2.70;92.12
55540;BME280;41384;51.418;7.286;2023-01-24T06:39:52;101905.56;;;2.61;91.36
55540;BME280;41384;51.418;7.286;2023-01-24T06:42:19;101916.59;;;2.52;91.45
55540;BME280;41384;51.418;7.286;2023-01-24T06:44:45;101917.41;;;2.53;93.30
55540;BME280;41384;51.418;7.286;2023-01-24T06:47:10;101921.38;;;2.45;92.43
55540;BME280;41384;51.418;7.286;2023-01-24T06:49:37;101921.00;;;2.65;91.57
55540;BME280;41384;51.418;7.286;2023-01-24T06:52:03;101920.88;;;2.53;91.72
55540;BME280;41384;51.418;7.286;2023-01-24T06:54:28;101929.84;;;2.49;91.81
55540;BME280;41384;51.418;7.286;2023-01-24T06:56:53;101925.97;;;2.55;92.15
55540;BME280;41384;51.418;7.286;2023-01-24T06:59:19;101937.75;;;2.47;92.07
55540;BME280;41384;51.418;7.286;2023-01-24T07:01:47;101939.22;;;2.52;92.17
55540;BME280;41384;51.418;7.286;2023-01-24T07:04:13;101932.84;;;2.56;92.15
55540;BME280;41384;51.418;7.286;2023-01-24T07:06:38;101941.22;;;2.61;91.60
55540;BME280;41384;51.418;7.286;2023-01-24T07:09:03;101942.66;;;2.52;91.11
55540;BME280;41384;51.418;7.286;2023-01-24T07:11:28;101942.88;;;2.62;92.81
55540;BME280;41384;51.418;7.286;2023-01-24T07:13:54;101933.75;;;2.69;92.07
55540;BME280;41384;51.418;7.286;2023-01-24T07:16:19;101944.91;;;2.71;91.83
55540;BME280;41384;51.418;7.286;2023-01-24T07:18:44;101944.19;;;2.69;91.19
55540;BME280;41384;51.418;7.286;2023-01-24T07:21:10;101947.47;;;2.58;90.32
55540;BME280;41384;51.418;7.286;2023-01-24T07:23:36;101946.41;;;2.48;91.96
55540;BME280;41384;51.418;7.286;2023-01-24T07:26:02;101944.88;;;2.58;91.65
55540;BME280;41384;51.418;7.286;2023-01-24T07:28:28;101942.50;;;2.68;90.81
55540;BME280;41384;51.418;7.286;2023-01-24T07:30:54;101934.56;;;2.70;91.80
55540;BME280;41384;51.418;7.286;2023-01-24T07:33:19;101947.09;;;2.77;91.79
55540;BME280;41384;51.418;7.286;2023-01-24T07:35:45;101949.19;;;2.85;91.04
55540;BME280;41384;51.418;7.286;2023-01-24T07:38:11;101947.31;;;2.74;91.69
55540;BME280;41384;51.418;7.286;2023-01-24T07:40:39;101950.34;;;2.81;91.64
55540;BME280;41384;51.418;7.286;2023-01-24T07:43:05;101956.41;;;2.82;90.84
55540;BME280;41384;51.418;7.286;2023-01-24T07:45:31;101956.59;;;2.79;90.79
55540;BME280;41384;51.418;7.286;2023-01-24T07:47:58;101962.63;;;2.66;89.84
55540;BME280;41384;51.418;7.286;2023-01-24T07:50:27;101962.69;;;2.52;91.02
55540;BME280;41384;51.418;7.286;2023-01-24T07:52:55;101958.00;;;2.57;91.73
55540;BME280;41384;51.418;7.286;2023-01-24T07:55:21;101964.34;;;2.53;90.80
55540;BME280;41384;51.418;7.286;2023-01-24T07:57:47;101970.50;;;2.52;91.41
55540;BME280;41384;51.418;7.286;2023-01-24T08:00:13;101966.56;;;2.59;91.33
55540;BME280;41384;51.418;7.286;2023-01-24T08:02:39;101966.09;;;2.39;91.75
55540;BME280;41384;51.418;7.286;2023-01-24T08:05:05;101976.22;;;2.44;92.08
55540;BME280;41384;51.418;7.286;2023-01-24T08:07:30;101978.63;;;2.47;91.73
55540;BME280;41384;51.418;7.286;2023-01-24T08:09:55;101977.44;;;2.66;91.09
55540;BME280;41384;51.418;7.286;2023-01-24T08:12:21;101969.81;;;2.62;91.13
55540;BME280;41384;51.418;7.286;2023-01-24T08:14:46;101975.50;;;2.55;90.51
55540;BME280;41384;51.418;7.286;2023-01-24T08:17:11;101985.84;;;2.56;92.07
55540;BME280;41384;51.418;7.286;2023-01-24T08:19:40;101981.63;;;2.41;91.94
55540;BME280;41384;51.418;7.286;2023-01-24T08:22:06;101981.97;;;2.49;92.48
55540;BME280;41384;51.418;7.286;2023-01-24T08:24:31;101986.78;;;2.28;91.71
55540;BME280;41384;51.418;7.286;2023-01-24T08:27:01;101986.94;;;2.39;90.96
55540;BME280;41384;51.418;7.286;2023-01-24T08:29:27;101984.81;;;2.59;90.51
55540;BME280;41384;51.418;7.286;2023-01-24T08:31:52;101994.00;;;2.65;91.04
55540;BME280;41384;51.418;7.286;2023-01-24T08:34:18;101988.59;;;2.68;90.89
55540;BME280;41384;51.418;7.286;2023-01-24T08:36:43;101992.00;;;2.55;91.35
55540;BME280;41384;51.418;7.286;2023-01-24T08:39:08;101996.69;;;2.23;92.30
55540;BME280;41384;51.418;7.286;2023-01-24T08:41:34;101988.06;;;2.35;92.57
55540;BME280;41384;51.418;7.286;2023-01-24T08:44:00;102000.81;;;2.40;93.46
55540;BME280;41384;51.418;7.286;2023-01-24T08:46:28;101995.34;;;2.57;90.72
55540;BME280;41384;51.418;7.286;2023-01-24T08:48:53;101996.97;;;2.45;91.42
55540;BME280;41384;51.418;7.286;2023-01-24T08:51:18;101992.66;;;2.31;91.54
55540;BME280;41384;51.418;7.286;2023-01-24T08:53:43;101997.84;;;2.59;91.24
55540;BME280;41384;51.418;7.286;2023-01-24T08:56:09;101991.41;;;2.37;90.67
55540;BME280;41384;51.418;7.286;2023-01-24T08:58:34;102003.72;;;2.35;91.15
55540;BME280;41384;51.418;7.286;2023-01-24T09:01:00;102014.19;;;2.48;91.70
55540;BME280;41384;51.418;7.286;2023-01-24T09:03:25;102007.50;;;2.71;89.59
55540;BME280;41384;51.418;7.286;2023-01-24T09:05:55;102005.91;;;2.69;90.63
55540;BME280;41384;51.418;7.286;2023-01-24T09:08:22;102006.75;;;2.69;90.62
55540;BME280;41384;51.418;7.286;2023-01-24T09:10:47;102004.81;;;2.86;89.65
55540;BME280;41384;51.418;7.286;2023-01-24T09:13:13;102014.41;;;2.85;89.41
55540;BME280;41384;51.418;7.286;2023-01-24T09:15:38;102010.03;;;2.86;89.31
55540;BME280;41384;51.418;7.286;2023-01-24T09:18:04;102010.13;;;2.84;90.34
55540;BME280;41384;51.418;7.286;2023-01-24T09:20:29;102010.59;;;2.63;90.01
55540;BME280;41384;51.418;7.286;2023-01-24T09:22:54;102017.53;;;2.50;89.57
55540;BME280;41384;51.418;7.286;2023-01-24T09:25:19;102014.72;;;2.53;89.74
55540;BME280;41384;51.418;7.286;2023-01-24T09:27:52;102015.56;;;2.54;91.21
55540;BME280;41384;51.418;7.286;2023-01-24T09:30:17;102027.66;;;2.55;89.80
55540;BME280;41384;51.418;7.286;2023-01-24T09:32:43;102021.69;;;2.67;89.30
55540;BME280;41384;51.418;7.286;2023-01-24T09:35:08;102032.31;;;2.77;90.08
55540;BME280;41384;51.418;7.286;2023-01-24T09:37:34;102029.63;;;2.79;91.08
55540;BME280;41384;51.418;7.286;2023-01-24T09:39:59;102034.72;;;2.80;88.85
55540;BME280;41384;51.418;7.286;2023-01-24T09:42:38;102031.84;;;2.98;88.78
55540;BME280;41384;51.418;7.286;2023-01-24T09:47:42;102038.97;;;3.09;90.39
55540;BME280;41384;51.418;7.286;2023-01-24T09:50:21;102038.31;;;3.05;88.64
55540;BME280;41384;51.418;7.286;2023-01-24T09:52:52;102037.59;;;3.03;88.57
55540;BME280;41384;51.418;7.286;2023-01-24T09:55:39;102039.19;;;3.05;88.63
55540;BME280;41384;51.418;7.286;2023-01-24T09:58:36;102035.91;;;3.02;88.01
55540;BME280;41384;51.418;7.286;2023-01-24T10:01:09;102042.72;;;3.04;88.73
55540;BME280;41384;51.418;7.286;2023-01-24T10:03:36;102031.75;;;2.99;88.49
55540;BME280;41384;51.418;7.286;2023-01-24T10:06:22;102031.91;;;2.83;88.55
55540;BME280;41384;51.418;7.286;2023-01-24T10:17:40;102039.00;;;2.81;89.78
55540;BME280;41384;51.418;7.286;2023-01-24T10:20:17;102031.91;;;2.83;90.23
55540;BME280;41384;51.418;7.286;2023-01-24T10:23:08;102038.28;;;2.79;90.15
55540;BME280;41384;51.418;7.286;2023-01-24T10:25:53;102034.56;;;3.09;89.80
55540;BME280;41384;51.418;7.286;2023-01-24T10:28:30;102034.03;;;3.04;88.55
55540;BME280;41384;51.418;7.286;2023-01-24T10:31:07;102034.97;;;3.03;87.25
55540;BME280;41384;51.418;7.286;2023-01-24T10:33:41;102044.56;;;2.89;87.65
55540;BME280;41384;51.418;7.286;2023-01-24T10:36:19;102044.47;;;2.91;88.02
55540;BME280;41384;51.418;7.286;2023-01-24T10:38:47;102032.13;;;2.80;89.08
55540;BME280;41384;51.418;7.286;2023-01-24T10:41:19;102036.59;;;2.78;89.66
55540;BME280;41384;51.418;7.286;2023-01-24T10:43:49;102027.47;;;2.98;88.53
55540;BME280;41384;51.418;7.286;2023-01-24T10:46:33;102031.97;;;3.09;88.12
55540;BME280;41384;51.418;7.286;2023-01-24T10:49:07;102022.09;;;3.14;87.74
55540;BME280;41384;51.418;7.286;2023-01-24T10:51:35;102020.50;;;3.12;87.40
55540;BME280;41384;51.418;7.286;2023-01-24T10:54:01;102036.72;;;2.89;87.20
55540;BME280;41384;51.418;7.286;2023-01-24T10:56:27;102028.75;;;3.05;89.21
55540;BME280;41384;51.418;7.286;2023-01-24T10:59:08;102028.75;;;3.05;86.79
55540;BME280;41384;51.418;7.286;2023-01-24T11:01:42;102027.41;;;3.26;87.32
55540;BME280;41384;51.418;7.286;2023-01-24T11:04:20;102020.91;;;3.05;86.13
55540;BME280;41384;51.418;7.286;2023-01-24T11:06:48;102009.13;;;3.13;86.78
55540;BME280;41384;51.418;7.286;2023-01-24T11:09:17;102017.06;;;3.11;87.17
55540;BME280;41384;51.418;7.286;2023-01-24T11:11:49;102009.56;;;3.19;87.50
55540;BME280;41384;51.418;7.286;2023-01-24T11:14:19;102010.78;;;3.14;85.87
55540;BME280;41384;51.418;7.286;2023-01-24T11:16:47;102014.97;;;3.03;86.66
55540;BME280;41384;51.418;7.286;2023-01-24T11:19:25;102002.88;;;3.15;87.65
55540;BME280;41384;51.418;7.286;2023-01-24T11:21:54;102009.25;;;3.24;84.76
55540;BME280;41384;51.418;7.286;2023-01-24T11:24:20;102012.03;;;3.08;86.72
55540;BME280;41384;51.418;7.286;2023-01-24T11:27:16;102006.06;;;3.06;86.53
55540;BME280;41384;51.418;7.286;2023-01-24T11:29:42;102012.69;;;3.12;86.02
55540;BME280;41384;51.418;7.286;2023-01-24T11:32:27;102004.97;;;3.10;86.14
55540;BME280;41384;51.418;7.286;2023-01-24T11:38:08;102010.69;;;3.28;86.56
55540;BME280;41384;51.418;7.286;2023-01-24T11:40:54;101998.69;;;3.39;87.63
55540;BME280;41384;51.418;7.286;2023-01-24T11:48:47;101997.13;;;3.10;87.42
55540;BME280;41384;51.418;7.286;2023-01-24T12:02:19;101990.25;;;3.35;85.48
55540;BME280;41384;51.418;7.286;2023-01-24T12:13:31;101974.25;;;3.40;87.37
55540;BME280;41384;51.418;7.286;2023-01-24T12:16:21;101976.16;;;3.25;86.29
55540;BME280;41384;51.418;7.286;2023-01-24T12:21:19;101961.53;;;3.35;85.79
55540;BME280;41384;51.418;7.286;2023-01-24T12:26:41;101950.66;;;3.41;85.07
55540;BME280;41384;51.418;7.286;2023-01-24T12:29:39;101952.50;;;3.65;84.94
55540;BME280;41384;51.418;7.286;2023-01-24T12:32:21;101948.16;;;3.40;83.84
55540;BME280;41384;51.418;7.286;2023-01-24T12:35:02;101944.06;;;3.48;85.53
55540;BME280;41384;51.418;7.286;2023-01-24T12:37:46;101943.22;;;3.48;84.17
55540;BME280;41384;51.418;7.286;2023-01-24T12:45:22;101933.63;;;3.61;85.88
55540;BME280;41384;51.418;7.286;2023-01-24T12:47:52;101924.34;;;3.44;84.44
55540;BME280;41384;51.418;7.286;2023-01-24T12:55:22;101926.03;;;3.32;84.39
55540;BME280;41384;51.418;7.286;2023-01-24T12:57:56;101931.06;;;3.23;86.76
55540;BME280;41384;51.418;7.286;2023-01-24T13:00:23;101926.44;;;3.26;86.64
55540;BME280;41384;51.418;7.286;2023-01-24T13:10:44;101922.47;;;3.46;85.54
55540;BME280;41384;51.418;7.286;2023-01-24T13:13:18;101916.50;;;3.44;86.19
55540;BME280;41384;51.418;7.286;2023-01-24T13:29:55;101912.22;;;3.43;85.69
55540;BME280;41384;51.418;7.286;2023-01-24T13:32:24;101906.66;;;3.48;84.32
55540;BME280;41384;51.418;7.286;2023-01-24T13:34:56;101911.13;;;3.21;85.01
55540;BME280;41384;51.418;7.286;2023-01-24T13:37:31;101908.59;;;3.33;84.85
55540;BME280;41384;51.418;7.286;2023-01-24T13:40:05;101911.28;;;3.31;85.12
55540;BME280;41384;51.418;7.286;2023-01-24T13:42:36;101906.38;;;3.40;85.79
55540;BME280;41384;51.418;7.286;2023-01-24T13:47:56;101915.06;;;3.40;84.31
55540;BME280;41384;51.418;7.286;2023-01-24T13:50:26;101916.63;;;3.17;85.07
55540;BME280;41384;51.418;7.286;2023-01-24T13:52:54;101908.28;;;3.25;86.10
55540;BME280;41384;51.418;7.286;2023-01-24T13:57:45;101915.19;;;3.00;85.73
55540;BME280;41384;51.418;7.286;2023-01-24T14:08:03;101914.03;;;3.30;83.66
55540;BME280;41384;51.418;7.286;2023-01-24T14:10:33;101919.25;;;3.04;86.07
55540;BME280;41384;51.418;7.286;2023-01-24T14:13:00;101925.09;;;2.95;85.82
55540;BME280;41384;51.418;7.286;2023-01-24T14:15:36;101919.59;;;3.12;84.52
55540;BME280;41384;51.418;7.286;2023-01-24T14:18:43;101926.69;;;3.10;84.65
55540;BME280;41384;51.418;7.286;2023-01-24T14:21:16;101928.84;;;3.29;84.29
55540;BME280;41384;51.418;7.286;2023-01-24T14:23:42;101933.56;;;3.11;84.85
55540;BME280;41384;51.418;7.286;2023-01-24T14:26:14;101929.69;;;3.17;84.35
55540;BME280;41384;51.418;7.286;2023-01-24T14:28:42;101937.22;;;3.21;84.33
55540;BME280;41384;51.418;7.286;2023-01-24T14:31:28;101939.72;;;2.97;87.48
55540;BME280;41384;51.418;7.286;2023-01-24T14:34:17;101940.13;;;3.04;84.19
55540;BME280;41384;51.418;7.286;2023-01-24T14:36:47;101938.56;;;3.27;84.49
55540;BME280;41384;51.418;7.286;2023-01-24T14:39:22;101945.03;;;3.09;86.08
55540;BME280;41384;51.418;7.286;2023-01-24T14:41:59;101946.50;;;3.13;86.41
55540;BME280;41384;51.418;7.286;2023-01-24T14:44:34;101939.72;;;2.97;85.79
55540;BME280;41384;51.418;7.286;2023-01-24T14:47:03;101949.41;;;2.82;86.42
55540;BME280;41384;51.418;7.286;2023-01-24T14:49:34;101946.41;;;3.01;85.76
55540;BME280;41384;51.418;7.286;2023-01-24T14:52:01;101956.56;;;2.66;86.57
55540;BME280;41384;51.418;7.286;2023-01-24T14:54:27;101949.72;;;2.77;86.38